Time;durP1;ratioP1;P1;durP2;ratioP2;P2;SDS_P1;SDS_P2;PMS_P1;PMS_P2;Temp;Humidity;BMP_temperature;BMP_pressure;BME280_temperature;BME280_humidity;BME280_pressure;Samples;Min_cycle;Max_cycle;Signal;HPM_P1;HPM_P2
2022/04/10 00:01:43;;;;;;;1.27;1.27;;;0.10;99.90;;;;;;4955569;29;20239;-67
2022/04/10 00:04:10;;;;;;;1.30;1.30;;;0.10;99.90;;;;;;4955339;29;20260;-67
2022/04/10 00:06:39;;;;;;;1.15;1.15;;;0.10;99.90;;;;;;4954922;28;20238;-67
2022/04/10 00:09:06;;;;;;;1.20;1.20;;;0.10;99.90;;;;;;4956157;28;20292;-67
2022/04/10 00:11:32;;;;;;;1.40;1.40;;;0.10;99.90;;;;;;4954965;29;20644;-67
2022/04/10 00:13:59;;;;;;;1.00;1.00;;;0.20;99.90;;;;;;4955182;28;20228;-68
2022/04/10 00:16:26;;;;;;;1.10;1.10;;;0.20;99.90;;;;;;4955262;29;20220;-68
2022/04/10 05:24:27;;;;;;;1.52;1.52;;;-1.30;99.90;;;;;;5626624;23;20262;-66
2022/04/10 05:26:54;;;;;;;1.63;1.63;;;-1.00;99.90;;;;;;4958040;29;20203;-67
2022/04/10 05:29:21;;;;;;;2.10;2.10;;;-0.50;99.90;;;;;;4958189;29;20295;-68
2022/04/10 05:31:49;;;;;;;2.03;1.92;;;0.00;99.90;;;;;;4958608;29;20682;-68
2022/04/10 05:34:16;;;;;;;2.10;2.08;;;0.50;99.90;;;;;;4957903;29;20227;-68
2022/04/10 05:36:43;;;;;;;2.17;2.13;;;1.00;99.90;;;;;;4958702;28;20247;-68
2022/04/10 05:39:10;;;;;;;2.25;2.15;;;1.40;99.90;;;;;;4958645;29;20296;-69
2022/04/10 05:41:38;;;;;;;2.63;2.53;;;1.90;99.90;;;;;;4957940;29;20214;-69
2022/04/10 05:44:05;;;;;;;2.22;2.22;;;2.30;99.90;;;;;;4957928;29;20259;-69
2022/04/10 05:46:32;;;;;;;1.95;1.95;;;2.70;99.90;;;;;;4957402;29;20730;-69
2022/04/10 05:48:59;;;;;;;2.80;2.70;;;3.20;99.90;;;;;;4958080;29;20200;-69
2022/04/10 05:51:26;;;;;;;2.47;2.38;;;3.80;99.90;;;;;;4962481;29;20291;-69
2022/04/10 05:53:53;;;;;;;2.42;2.33;;;4.20;99.90;;;;;;4964146;28;20242;-69
2022/04/10 05:56:19;;;;;;;2.15;2.05;;;4.50;99.90;;;;;;4963446;29;20741;-69
2022/04/10 05:58:48;;;;;;;3.40;3.20;;;4.70;99.90;;;;;;4960244;29;20247;-69
2022/04/10 06:01:15;;;;;;;4.78;3.97;;;5.10;99.90;;;;;;4957858;28;20812;-70
2022/04/10 06:03:42;;;;;;;4.40;4.07;;;5.40;99.90;;;;;;4957989;29;20292;-69
2022/04/10 06:06:09;;;;;;;3.20;3.00;;;6.20;99.90;;;;;;4956749;28;20234;-69
2022/04/10 06:08:35;;;;;;;3.40;3.20;;;7.90;99.90;;;;;;4958445;29;20216;-69
2022/04/10 06:11:02;;;;;;;2.85;2.65;;;9.70;99.90;;;;;;4957955;29;20204;-69
2022/04/10 06:13:29;;;;;;;2.53;2.40;;;11.20;97.00;;;;;;4958603;29;20204;-69
2022/04/10 06:15:58;;;;;;;3.22;2.90;;;;;;;;;;4957102;29;20711;-69
2022/04/10 06:18:24;;;;;;;3.10;2.90;;;13.50;56.90;;;;;;4957288;29;20287;-70
2022/04/10 06:20:51;;;;;;;2.97;2.78;;;14.50;51.80;;;;;;4956981;29;20210;-70
2022/04/10 06:23:20;;;;;;;2.60;2.50;;;16.00;48.70;;;;;;4957316;29;20208;-70
2022/04/10 06:25:47;;;;;;;2.13;1.92;;;17.10;39.90;;;;;;4957232;29;20282;-70
2022/04/10 06:28:14;;;;;;;1.40;1.30;;;18.10;40.50;;;;;;4957253;29;20200;-70
2022/04/10 06:30:40;;;;;;;1.42;1.38;;;18.70;35.80;;;;;;4956903;29;20595;-70
2022/04/10 06:33:09;;;;;;;1.67;1.60;;;18.50;35.60;;;;;;4957165;29;20302;-70
2022/04/10 06:35:35;;;;;;;1.33;1.30;;;18.90;36.30;;;;;;4957378;29;20323;-70
2022/04/10 06:38:02;;;;;;;1.10;1.10;;;19.70;34.70;;;;;;4957014;29;20230;-71
2022/04/10 06:40:29;;;;;;;0.88;0.88;;;20.00;33.80;;;;;;4957149;29;20292;-71
2022/04/10 06:42:56;;;;;;;1.33;1.33;;;19.80;33.60;;;;;;4956904;29;20207;-71
2022/04/10 06:45:23;;;;;;;2.03;1.92;;;20.30;34.40;;;;;;4956992;29;20249;-71
2022/04/10 06:47:50;;;;;;;2.53;2.30;;;20.60;34.00;;;;;;4956537;28;20538;-69
2022/04/10 06:50:19;;;;;;;2.60;2.40;;;21.20;33.70;;;;;;4957239;29;20210;-70
2022/04/10 06:52:46;;;;;;;2.58;2.40;;;21.90;33.10;;;;;;4962488;29;20282;-70
2022/04/10 06:55:13;;;;;;;2.40;2.25;;;22.10;33.40;;;;;;4959260;29;20233;-69
2022/04/10 06:57:41;;;;;;;3.65;3.08;;;22.70;33.20;;;;;;4962296;28;20316;-69
2022/04/10 07:00:09;;;;;;;2.88;2.67;;;22.80;32.00;;;;;;4961132;28;20207;-69
2022/04/10 07:02:35;;;;;;;3.17;2.80;;;23.00;31.90;;;;;;4958517;28;20203;-69
2022/04/10 07:05:03;;;;;;;3.17;2.88;;;23.20;31.20;;;;;;4959754;28;20216;-70
2022/04/10 07:07:32;;;;;;;2.80;2.60;;;23.60;31.70;;;;;;4961172;28;20200;-71
2022/04/10 07:09:59;;;;;;;3.10;2.90;;;23.70;31.50;;;;;;4961094;28;20203;-70
2022/04/10 07:12:27;;;;;;;2.88;2.63;;;24.10;31.30;;;;;;4961057;28;20211;-70
2022/04/10 07:14:55;;;;;;;3.42;2.15;;;24.70;30.50;;;;;;4961792;28;20230;-70
2022/04/10 07:17:22;;;;;;;1.73;1.63;;;24.90;30.90;;;;;;4961430;28;20247;-71
2022/04/10 07:19:49;;;;;;;1.92;1.80;;;25.40;31.50;;;;;;4961288;28;20204;-71
2022/04/10 07:25:03;;;;;;;1.63;1.52;;;25.10;29.70;;;;;;4959983;29;20285;-70
2022/04/10 07:27:30;;;;;;;1.20;1.20;;;25.00;30.30;;;;;;4961267;29;20183;-70
2022/04/10 07:29:57;;;;;;;1.10;1.10;;;25.10;30.80;;;;;;4960250;29;20290;-70
2022/04/10 07:32:24;;;;;;;0.82;0.82;;;24.90;30.90;;;;;;4956435;29;20203;-71
2022/04/10 07:34:50;;;;;;;1.55;1.50;;;24.70;30.70;;;;;;4956225;29;20314;-70
2022/04/10 07:37:17;;;;;;;1.55;1.45;;;24.30;32.70;;;;;;4956126;29;20258;-69
2022/04/10 07:39:44;;;;;;;1.15;1.10;;;;;;;;;;4956247;29;20243;-71
2022/04/10 07:42:13;;;;;;;1.00;1.00;;;24.10;32.00;;;;;;4956114;29;20203;-71
2022/04/10 07:44:39;;;;;;;1.40;1.30;;;23.90;30.20;;;;;;4956297;29;20223;-70
2022/04/10 07:49:50;;;;;;;1.85;0.98;;;23.80;27.10;;;;;;4955865;29;20186;-71
2022/04/10 07:52:17;;;;;;;0.93;0.93;;;23.60;26.00;;;;;;4955955;29;20203;-74
2022/04/10 07:54:44;;;;;;;1.02;1.02;;;23.30;25.90;;;;;;4955735;29;20314;-68
2022/04/10 07:57:12;;;;;;;1.33;0.77;;;23.30;25.90;;;;;;4955641;28;20313;-68
2022/04/10 07:59:39;;;;;;;0.90;0.90;;;23.20;26.60;;;;;;4955777;29;20245;-68
2022/04/10 08:02:07;;;;;;;0.70;0.70;;;23.10;26.90;;;;;;4956180;29;20275;-67
2022/04/10 08:04:34;;;;;;;0.85;0.70;;;23.30;26.60;;;;;;4955455;28;20790;-68
2022/04/10 08:07:00;;;;;;;0.70;0.70;;;23.10;26.30;;;;;;4955735;29;20290;-69
2022/04/10 08:09:27;;;;;;;0.88;0.65;;;23.30;27.60;;;;;;4955459;29;20207;-71
2022/04/10 08:11:54;;;;;;;1.30;1.20;;;22.60;24.70;;;;;;4955379;28;20663;-72
2022/04/10 08:14:22;;;;;;;1.10;1.10;;;20.20;26.90;;;;;;4955832;29;20223;-70
2022/04/10 08:16:49;;;;;;;1.23;1.20;;;18.00;27.90;;;;;;4955655;28;20310;-68
2022/04/10 08:19:16;;;;;;;1.17;1.10;;;16.10;28.10;;;;;;4955633;29;20206;-67
2022/04/10 08:21:43;;;;;;;1.20;1.10;;;15.80;29.10;;;;;;4955307;29;20616;-67
2022/04/10 08:24:10;;;;;;;1.05;1.05;;;15.50;29.50;;;;;;4955574;29;20314;-67
2022/04/10 08:26:37;;;;;;;1.20;1.10;;;14.80;29.00;;;;;;4955409;29;20306;-66
2022/04/10 08:29:04;;;;;;;1.38;1.27;;;14.30;30.50;;;;;;4955631;28;20211;-67
2022/04/10 08:31:32;;;;;;;0.90;0.90;;;14.00;29.70;;;;;;4955771;29;20295;-67
2022/04/10 08:33:59;;;;;;;1.60;0.90;;;13.40;29.70;;;;;;4955424;28;20224;-68
2022/04/10 08:36:26;;;;;;;0.90;0.90;;;12.40;30.30;;;;;;4955392;29;20291;-67
2022/04/10 08:38:52;;;;;;;1.20;1.20;;;11.50;32.10;;;;;;4954902;29;20590;-67
2022/04/10 08:41:21;;;;;;;0.90;0.90;;;10.80;34.30;;;;;;4955546;28;20259;-67
2022/04/10 08:43:49;;;;;;;1.00;1.00;;;10.30;35.90;;;;;;4955461;29;20291;-67
2022/04/10 08:46:19;;;;;;;0.88;0.88;;;9.80;38.60;;;;;;4955258;28;20585;-68
2022/04/10 08:48:49;;;;;;;0.88;0.88;;;9.40;40.20;;;;;;4955582;28;20200;-68
2022/04/10 08:51:16;;;;;;;1.00;1.00;;;9.10;43.30;;;;;;4955154;29;20185;-67
2022/04/10 08:53:45;;;;;;;1.27;1.23;;;8.80;43.60;;;;;;4955558;29;20214;-68
2022/04/10 08:56:12;;;;;;;1.20;1.20;;;8.70;44.70;;;;;;4955163;29;20690;-67
2022/04/10 08:58:39;;;;;;;1.20;1.20;;;8.60;44.40;;;;;;4955073;29;20754;-67
2022/04/10 09:01:05;;;;;;;1.75;1.33;;;8.70;46.30;;;;;;4954769;29;20295;-67
2022/04/10 09:03:32;;;;;;;2.00;1.90;;;8.60;45.90;;;;;;4955289;29;20235;-67
2022/04/10 09:06:05;;;;;;;2.00;1.90;;;8.40;46.50;;;;;;4955368;29;20291;-67
2022/04/10 09:08:32;;;;;;;1.70;1.70;;;8.10;49.00;;;;;;4955818;29;20200;-67
2022/04/10 09:11:01;;;;;;;1.63;1.52;;;8.10;50.50;;;;;;4955196;28;20283;-67
2022/04/10 09:13:31;;;;;;;1.10;1.10;;;8.00;48.00;;;;;;4954969;28;20694;-67
2022/04/10 09:16:10;;;;;;;1.58;1.48;;;8.20;50.80;;;;;;4954924;29;20658;-67
2022/04/10 09:18:52;;;;;;;1.20;1.20;;;8.40;48.80;;;;;;4955344;28;20215;-67
2022/04/10 09:21:22;;;;;;;1.35;1.30;;;8.60;46.30;;;;;;4955732;29;20212;-69
2022/04/10 09:23:57;;;;;;;2.03;1.90;;;8.90;46.60;;;;;;4955991;28;20196;-69
2022/04/10 09:26:24;;;;;;;2.33;2.08;;;8.90;44.10;;;;;;4965828;29;20303;-69
2022/04/10 09:28:52;;;;;;;2.65;1.98;;;8.70;44.90;;;;;;4965275;28;20286;-69
2022/04/10 09:31:27;;;;;;;1.38;1.27;;;8.60;48.40;;;;;;4955184;29;20206;-69
2022/04/10 09:33:54;;;;;;;1.30;1.30;;;8.60;48.40;;;;;;4954686;29;20805;-69
2022/04/10 09:36:37;;;;;;;1.27;1.25;;;8.60;48.40;;;;;;4955096;29;20231;-69
2022/04/10 09:39:06;;;;;;;1.10;1.10;;;8.40;48.80;;;;;;4954662;28;20649;-69
2022/04/10 09:41:33;;;;;;;0.93;0.93;;;8.30;48.60;;;;;;4957788;29;20287;-67
2022/04/10 09:44:01;;;;;;;1.00;1.00;;;8.10;50.40;;;;;;4958267;29;20230;-67
2022/04/10 09:46:30;;;;;;;1.05;1.05;;;8.00;53.70;;;;;;4958090;29;20211;-67
2022/04/10 09:48:58;;;;;;;1.70;1.60;;;7.90;64.20;;;;;;4958360;28;20199;-69
2022/04/10 09:51:24;;;;;;;1.25;1.25;;;7.60;64.20;;;;;;4958295;28;20211;-69
2022/04/10 09:54:06;;;;;;;1.45;1.45;;;7.50;66.50;;;;;;4958022;29;20203;-67
2022/04/10 09:56:33;;;;;;;1.23;1.23;;;7.50;75.10;;;;;;4957882;29;20246;-67
2022/04/10 09:59:01;;;;;;;1.00;1.00;;;7.50;85.70;;;;;;4958243;29;20230;-67
2022/04/10 10:01:29;;;;;;;1.17;1.17;;;7.50;84.40;;;;;;4958225;29;20219;-67
2022/04/10 10:03:57;;;;;;;1.10;1.10;;;7.40;89.00;;;;;;4957985;29;20226;-67
2022/04/10 10:06:25;;;;;;;0.80;0.80;;;7.40;91.70;;;;;;4957637;29;20603;-67
2022/04/10 10:08:53;;;;;;;1.00;1.00;;;7.30;86.10;;;;;;4957956;29;20207;-66
2022/04/10 10:11:22;;;;;;;2.03;1.17;;;7.20;91.40;;;;;;4957978;29;20212;-65
2022/04/10 10:13:50;;;;;;;1.35;1.35;;;7.10;95.90;;;;;;4957705;29;20211;-65
2022/04/10 10:16:18;;;;;;;2.25;2.10;;;6.90;98.20;;;;;;4957669;29;20303;-67
2022/04/10 10:18:46;;;;;;;3.40;3.10;;;6.80;99.90;;;;;;4957768;28;20220;-67
2022/04/10 10:21:15;;;;;;;2.70;2.50;;;6.80;99.90;;;;;;4957753;28;20204;-69
2022/04/10 10:23:47;;;;;;;2.00;1.90;;;6.80;99.90;;;;;;4957595;29;20756;-69
2022/04/10 10:26:30;;;;;;;1.67;1.60;;;6.70;99.90;;;;;;4957182;29;20211;-70
2022/04/10 10:29:24;;;;;;;1.67;1.60;;;6.80;99.90;;;;;;4957039;29;20667;-65
2022/04/10 10:32:03;;;;;;;1.83;1.73;;;6.80;99.90;;;;;;4950300;28;20204;-65
2022/04/10 10:34:31;;;;;;;2.22;1.92;;;6.90;99.90;;;;;;4957160;29;20224;-65
2022/04/10 10:37:02;;;;;;;1.83;1.73;;;7.10;99.90;;;;;;4957183;29;20208;-65
2022/04/10 10:39:30;;;;;;;1.70;1.60;;;7.30;90.00;;;;;;4957206;29;20208;-66
2022/04/10 10:42:10;;;;;;;1.00;1.00;;;7.40;77.20;;;;;;4957182;29;20255;-67
2022/04/10 10:44:58;;;;;;;1.23;1.13;;;7.70;77.10;;;;;;4956917;29;20756;-68
2022/04/10 10:47:34;;;;;;;1.38;1.27;;;8.00;58.70;;;;;;4956972;29;20280;-66
2022/04/10 10:50:01;;;;;;;1.60;1.50;;;8.00;52.40;;;;;;4956926;29;20556;-67
2022/04/10 10:52:29;;;;;;;1.90;1.80;;;8.00;55.40;;;;;;4956523;28;20567;-67
2022/04/10 10:54:58;;;;;;;1.60;1.50;;;7.90;55.30;;;;;;4957096;29;20399;-68
2022/04/10 10:57:29;;;;;;;1.30;1.30;;;7.80;59.70;;;;;;4957096;29;20208;-68
2022/04/10 11:00:07;;;;;;;1.10;1.10;;;7.70;58.30;;;;;;4959074;28;20283;-67
2022/04/10 11:02:36;;;;;;;1.13;1.13;;;7.60;58.20;;;;;;4961113;29;20208;-67
2022/04/10 11:05:27;;;;;;;1.10;1.10;;;7.60;59.10;;;;;;4959939;29;20228;-68
2022/04/10 11:07:58;;;;;;;1.25;1.25;;;7.60;68.30;;;;;;4960304;28;20185;-67
2022/04/10 11:10:28;;;;;;;1.67;1.30;;;7.70;67.70;;;;;;4960316;28;20223;-68
2022/04/10 11:13:02;;;;;;;1.70;1.60;;;7.80;63.60;;;;;;4960372;29;20192;-68
2022/04/10 11:15:34;;;;;;;1.20;1.20;;;8.00;68.00;;;;;;4959804;29;20235;-68
2022/04/10 11:18:31;;;;;;;1.95;1.83;;;8.00;68.90;;;;;;4960764;28;20223;-68
2022/04/10 11:21:01;;;;;;;1.65;1.55;;;8.00;72.30;;;;;;4960345;28;20203;-68
2022/04/10 11:23:34;;;;;;;1.67;1.58;;;7.90;71.90;;;;;;4960897;29;20208;-67
2022/04/10 11:26:06;;;;;;;1.33;1.33;;;7.90;66.10;;;;;;4960991;29;20216;-67
2022/04/10 11:28:54;;;;;;;1.35;1.25;;;7.90;68.90;;;;;;4961446;28;20185;-67
2022/04/10 11:31:32;;;;;;;1.08;1.02;;;8.00;75.40;;;;;;4961748;28;20212;-67
2022/04/10 11:34:12;;;;;;;1.70;1.58;;;8.10;63.20;;;;;;4960766;29;20231;-67
2022/04/10 11:36:52;;;;;;;1.30;1.30;;;7.90;65.10;;;;;;4956158;28;20202;-67
2022/04/10 11:39:23;;;;;;;1.83;1.50;;;7.70;73.40;;;;;;4956147;28;20215;-67
2022/04/10 11:41:51;;;;;;;1.92;1.52;;;7.60;83.80;;;;;;4956649;29;20236;-67
2022/04/10 11:44:19;;;;;;;1.63;1.55;;;7.70;77.20;;;;;;4956244;28;20224;-66
2022/04/10 11:46:46;;;;;;;1.75;1.65;;;7.70;62.70;;;;;;4956506;29;20208;-67
2022/04/10 11:49:14;;;;;;;1.45;1.35;;;7.60;55.90;;;;;;4956063;29;20196;-66
2022/04/10 11:51:51;;;;;;;1.30;1.20;;;7.70;56.70;;;;;;4956119;28;20204;-66
2022/04/10 11:54:24;;;;;;;1.20;1.13;;;8.00;58.90;;;;;;4955639;29;20235;-67
2022/04/10 11:56:52;;;;;;;1.40;1.40;;;8.20;54.30;;;;;;4955664;29;20240;-66
2022/04/10 11:59:20;;;;;;;1.50;1.40;;;8.30;50.40;;;;;;4955867;28;20222;-66
2022/04/10 12:01:49;;;;;;;2.35;1.67;;;8.40;52.80;;;;;;4955830;28;20203;-66
2022/04/10 12:04:18;;;;;;;1.38;1.30;;;8.40;51.70;;;;;;4955091;29;20588;-66
2022/04/10 12:06:45;;;;;;;1.40;1.40;;;8.20;53.20;;;;;;4955937;29;20302;-68
2022/04/10 12:09:12;;;;;;;1.58;1.42;;;8.20;50.80;;;;;;4955821;28;20332;-67
2022/04/10 12:11:40;;;;;;;1.50;1.42;;;8.20;52.70;;;;;;4955468;29;20208;-67
2022/04/10 12:14:24;;;;;;;1.10;1.10;;;8.40;51.90;;;;;;4955623;29;20231;-67
2022/04/10 12:16:51;;;;;;;2.75;1.67;;;8.70;51.30;;;;;;4955738;29;20190;-67
2022/04/10 12:19:30;;;;;;;2.38;2.15;;;8.80;49.10;;;;;;4955638;29;20277;-67
2022/04/10 12:21:57;;;;;;;2.83;2.40;;;8.70;49.70;;;;;;4955700;29;20239;-67
2022/04/10 12:24:24;;;;;;;2.83;2.15;;;8.50;49.50;;;;;;4955194;29;20742;-67
2022/04/10 12:26:51;;;;;;;1.83;1.73;;;8.40;50.70;;;;;;4955485;29;20212;-67
2022/04/10 12:29:20;;;;;;;1.90;1.80;;;8.30;54.00;;;;;;4955605;29;20200;-67
2022/04/10 12:31:49;;;;;;;1.50;1.40;;;8.20;54.90;;;;;;4955505;29;20578;-68
2022/04/10 17:10:26;;;;;;;0.50;0.50;;;7.60;49.00;;;;;;5959083;23;20171;-68
2022/04/10 17:12:53;;;;;;;0.57;0.57;;;7.50;49.60;;;;;;4939038;29;20209;-67
2022/04/10 17:15:20;;;;;;;0.50;0.50;;;7.40;50.90;;;;;;4939265;29;20215;-67
2022/04/10 17:17:47;;;;;;;0.40;0.40;;;7.40;52.40;;;;;;4939586;29;20208;-67
2022/04/10 17:20:14;;;;;;;0.47;0.47;;;7.30;53.60;;;;;;4939157;29;20728;-68
2022/04/10 17:22:41;;;;;;;0.50;0.50;;;7.30;56.70;;;;;;4939390;29;20201;-67
2022/04/10 17:25:09;;;;;;;0.50;0.50;;;7.20;61.80;;;;;;4939339;29;20262;-67
2022/04/10 17:27:38;;;;;;;0.50;0.50;;;7.10;63.10;;;;;;4939841;29;20205;-69
2022/04/10 17:30:06;;;;;;;0.68;0.68;;;7.00;65.60;;;;;;4938889;29;20292;-73
2022/04/10 17:32:33;;;;;;;0.80;0.80;;;7.00;63.30;;;;;;4940052;29;20204;-69
2022/04/10 17:35:01;;;;;;;0.90;0.90;;;6.90;54.40;;;;;;4939255;29;20287;-68
2022/04/10 17:37:29;;;;;;;0.90;0.90;;;6.90;57.50;;;;;;4938840;29;20676;-70
2022/04/10 17:39:55;;;;;;;0.88;0.88;;;6.80;64.30;;;;;;4938920;29;20320;-70
2022/04/10 17:42:22;;;;;;;1.00;1.00;;;6.70;72.90;;;;;;4938508;29;20295;-70
2022/04/10 17:44:50;;;;;;;1.15;1.15;;;6.70;80.80;;;;;;4939264;29;20300;-70
2022/04/10 17:47:18;;;;;;;0.90;0.90;;;6.60;88.50;;;;;;4939710;29;20652;-70
2022/04/10 17:49:45;;;;;;;0.93;0.93;;;6.40;93.60;;;;;;4941097;29;20227;-70
2022/04/10 17:52:12;;;;;;;1.00;1.00;;;6.30;97.10;;;;;;4938926;29;20278;-70
2022/04/10 17:54:38;;;;;;;0.80;0.80;;;6.20;97.40;;;;;;4938517;29;20780;-71
2022/04/10 17:57:05;;;;;;;0.80;0.80;;;6.10;95.90;;;;;;4939034;29;20236;-71
2022/04/10 17:59:34;;;;;;;0.80;0.80;;;6.00;96.40;;;;;;4938867;29;20316;-72
2022/04/10 18:02:02;;;;;;;0.80;0.80;;;5.90;99.90;;;;;;4937528;29;20316;-71
2022/04/10 18:04:29;;;;;;;0.80;0.80;;;5.80;99.90;;;;;;4938524;29;20209;-71
2022/04/10 18:06:56;;;;;;;0.60;0.60;;;5.70;99.90;;;;;;4938760;29;20296;-71
2022/04/10 18:09:23;;;;;;;0.70;0.70;;;5.60;99.90;;;;;;4938373;29;20256;-71
2022/04/10 18:11:50;;;;;;;0.70;0.70;;;5.50;99.90;;;;;;4938533;29;20233;-71
2022/04/10 18:14:17;;;;;;;0.60;0.60;;;5.40;99.90;;;;;;4938694;29;20199;-71
2022/04/10 18:16:49;;;;;;;0.70;0.70;;;5.30;99.90;;;;;;4939118;29;20251;-69
2022/04/10 18:19:18;;;;;;;0.50;0.50;;;5.20;99.90;;;;;;4938757;29;20255;-69
2022/04/10 18:21:45;;;;;;;0.50;0.50;;;5.00;99.90;;;;;;4938206;29;20580;-69
2022/04/10 18:24:12;;;;;;;0.60;0.60;;;4.90;99.90;;;;;;4938277;29;20296;-68
2022/04/10 18:26:39;;;;;;;0.75;0.75;;;4.80;99.90;;;;;;4938271;29;20318;-70
2022/04/10 18:29:07;;;;;;;0.70;0.70;;;4.60;99.90;;;;;;4938544;29;20298;-69
2022/04/10 18:31:34;;;;;;;0.50;0.50;;;4.50;99.90;;;;;;4938713;29;20228;-68
2022/04/10 18:34:02;;;;;;;0.60;0.60;;;4.30;99.90;;;;;;4938802;29;20251;-69
2022/04/10 18:36:30;;;;;;;0.70;0.70;;;4.20;99.90;;;;;;4938707;29;20204;-69
2022/04/10 18:38:57;;;;;;;0.50;0.50;;;4.00;99.90;;;;;;4938287;29;20320;-70
2022/04/10 18:41:24;;;;;;;0.60;0.60;;;3.90;99.90;;;;;;4938378;29;20315;-70
2022/04/10 18:43:51;;;;;;;0.55;0.55;;;3.80;99.90;;;;;;4937993;29;20543;-70
2022/04/10 18:46:18;;;;;;;1.15;1.08;;;3.70;99.90;;;;;;4938278;29;20303;-70
2022/04/10 18:51:32;;;;;;;0.65;0.65;;;3.30;99.90;;;;;;4938573;29;20223;-70
2022/04/10 18:53:59;;;;;;;0.65;0.65;;;3.30;99.90;;;;;;4938170;29;20208;-70
2022/04/10 18:56:26;;;;;;;0.70;0.70;;;3.20;99.90;;;;;;4937940;29;20204;-70
2022/04/10 18:58:53;;;;;;;1.00;0.70;;;3.00;99.90;;;;;;4938031;29;20224;-70
2022/04/10 19:01:20;;;;;;;0.68;0.68;;;3.00;99.90;;;;;;4937605;29;20660;-69
2022/04/10 19:03:47;;;;;;;0.63;0.63;;;2.80;99.90;;;;;;4937866;29;20205;-69
2022/04/10 19:06:14;;;;;;;0.60;0.60;;;2.70;99.90;;;;;;4938226;29;20646;-69
2022/04/10 19:08:43;;;;;;;0.98;0.98;;;2.60;99.90;;;;;;4938139;29;20205;-69
2022/04/10 19:11:12;;;;;;;0.70;0.70;;;2.60;99.90;;;;;;4938153;29;20607;-69
2022/04/10 19:13:39;;;;;;;0.85;0.85;;;2.50;99.90;;;;;;4937583;29;20208;-69
2022/04/10 19:16:06;;;;;;;0.82;0.82;;;2.40;99.90;;;;;;4937505;29;20682;-69
2022/04/10 19:18:33;;;;;;;1.00;1.00;;;2.30;99.90;;;;;;4937481;29;20237;-69
2022/04/10 19:21:00;;;;;;;0.82;0.82;;;2.20;99.90;;;;;;4937760;29;20316;-68
2022/04/10 19:23:27;;;;;;;0.82;0.82;;;2.10;99.90;;;;;;4937105;29;20234;-68
2022/04/10 19:25:55;;;;;;;0.85;0.85;;;2.10;99.90;;;;;;4937435;29;20251;-68
2022/04/10 19:28:22;;;;;;;0.93;0.93;;;2.10;99.90;;;;;;4937463;29;20300;-68
2022/04/10 19:30:51;;;;;;;0.75;0.75;;;1.90;99.90;;;;;;4937192;29;20227;-69
2022/04/10 19:33:18;;;;;;;1.23;0.90;;;1.90;99.90;;;;;;4937249;29;20204;-69
2022/04/10 19:35:46;;;;;;;0.65;0.65;;;1.80;99.90;;;;;;4936857;29;20661;-69
2022/04/10 19:38:13;;;;;;;0.90;0.90;;;1.70;99.90;;;;;;4937172;29;20200;-69
2022/04/10 19:40:40;;;;;;;0.80;0.80;;;1.70;99.90;;;;;;4937036;29;20319;-69
2022/04/10 19:43:08;;;;;;;0.90;0.90;;;1.60;99.90;;;;;;4936914;29;20236;-69
2022/04/10 19:45:35;;;;;;;0.80;0.80;;;1.60;99.90;;;;;;4936949;29;20244;-69
2022/04/10 19:48:02;;;;;;;1.00;1.00;;;1.50;99.90;;;;;;4936868;29;20212;-69
2022/04/10 19:50:28;;;;;;;0.77;0.77;;;1.40;99.90;;;;;;4936712;29;20763;-69
2022/04/10 19:55:40;;;;;;;0.90;0.90;;;1.30;99.90;;;;;;4937193;29;20204;-69
2022/04/10 19:58:09;;;;;;;0.80;0.80;;;1.20;99.90;;;;;;4937001;29;20628;-69
2022/04/10 20:00:37;;;;;;;1.00;1.00;;;1.10;99.90;;;;;;4936704;29;20235;-69
2022/04/10 20:03:04;;;;;;;1.15;1.08;;;1.10;99.90;;;;;;4937061;29;20208;-69
2022/04/10 20:05:31;;;;;;;1.27;1.27;;;1.00;99.90;;;;;;4936727;29;20209;-70
2022/04/10 20:07:58;;;;;;;0.90;0.90;;;0.90;99.90;;;;;;4936541;29;20664;-70
2022/04/10 20:10:26;;;;;;;1.10;1.10;;;0.90;99.90;;;;;;4936692;29;20226;-70
2022/04/10 20:12:53;;;;;;;0.90;0.90;;;0.80;99.90;;;;;;4936972;29;20220;-71
2022/04/10 20:15:22;;;;;;;1.00;1.00;;;0.80;99.90;;;;;;4937149;29;20208;-70
2022/04/10 20:17:49;;;;;;;0.93;0.93;;;0.70;99.90;;;;;;4936991;29;20232;-70
2022/04/10 20:20:17;;;;;;;1.00;1.00;;;0.70;99.90;;;;;;4936936;29;20232;-70
2022/04/10 20:22:43;;;;;;;1.13;1.13;;;0.70;99.90;;;;;;4936541;29;20747;-70
2022/04/10 20:25:10;;;;;;;1.20;1.20;;;0.60;99.90;;;;;;4936477;29;20295;-70
2022/04/10 20:27:37;;;;;;;0.90;0.90;;;0.50;99.90;;;;;;4939487;29;20211;-69
2022/04/10 20:30:05;;;;;;;0.95;0.95;;;0.50;99.90;;;;;;4942137;29;20200;-69
2022/04/10 20:32:33;;;;;;;0.82;0.82;;;0.50;99.90;;;;;;4944480;29;20291;-70
2022/04/10 20:35:00;;;;;;;1.10;1.10;;;0.50;99.90;;;;;;4936342;29;20232;-70
2022/04/10 20:37:27;;;;;;;1.00;1.00;;;0.40;99.90;;;;;;4936072;29;20204;-69
2022/04/10 20:39:56;;;;;;;0.90;0.90;;;0.40;99.90;;;;;;4935858;29;20316;-69
2022/04/10 20:42:23;;;;;;;0.82;0.82;;;0.30;99.90;;;;;;4936173;29;20316;-69
2022/04/10 20:44:50;;;;;;;1.10;1.10;;;0.30;99.90;;;;;;4936243;29;20211;-69
2022/04/10 20:47:17;;;;;;;1.10;1.10;;;0.30;99.90;;;;;;4936091;29;20210;-69
2022/04/10 20:49:45;;;;;;;1.33;1.33;;;0.30;99.90;;;;;;4936131;29;20347;-69
2022/04/10 20:52:12;;;;;;;0.98;0.98;;;0.30;99.90;;;;;;4936105;29;20654;-69
2022/04/10 20:54:39;;;;;;;1.10;1.10;;;0.20;99.90;;;;;;4936003;29;20212;-69
2022/04/10 20:57:06;;;;;;;1.23;1.23;;;0.20;99.90;;;;;;4936140;29;20232;-69
2022/04/10 20:59:33;;;;;;;1.33;1.23;;;0.20;99.90;;;;;;4935893;29;20220;-69
2022/04/10 21:02:00;;;;;;;1.20;1.20;;;0.10;99.90;;;;;;4935943;29;20327;-69
2022/04/10 21:04:27;;;;;;;1.33;1.33;;;0.10;99.90;;;;;;4935924;29;20211;-69
2022/04/10 21:06:55;;;;;;;1.33;1.33;;;0.00;99.90;;;;;;4936005;29;20300;-69
2022/04/10 21:09:24;;;;;;;1.13;1.13;;;0.00;99.90;;;;;;4935848;29;20300;-69
2022/04/10 21:11:51;;;;;;;1.30;1.30;;;0.00;99.90;;;;;;4935776;29;20243;-70
2022/04/10 21:14:18;;;;;;;1.38;1.38;;;0.00;99.90;;;;;;4935817;29;20208;-70
2022/04/10 21:16:45;;;;;;;1.40;1.40;;;-0.10;99.90;;;;;;4935646;29;20743;-70
2022/04/10 21:19:12;;;;;;;1.45;1.45;;;-0.10;99.90;;;;;;4935928;29;20272;-69
2022/04/10 21:21:40;;;;;;;1.52;1.52;;;-0.10;99.90;;;;;;4935645;29;20267;-69
2022/04/10 21:24:09;;;;;;;1.20;1.20;;;-0.10;99.90;;;;;;4935906;29;20260;-69
2022/04/10 21:26:36;;;;;;;1.52;1.50;;;-0.20;99.90;;;;;;4935512;29;20665;-68
2022/04/10 21:29:03;;;;;;;1.70;1.60;;;-0.20;99.90;;;;;;4935611;29;20296;-68
2022/04/10 21:31:30;;;;;;;1.02;1.02;;;-0.20;99.90;;;;;;4935907;29;20237;-69
2022/04/10 21:33:57;;;;;;;1.45;1.45;;;-0.30;99.90;;;;;;4936929;29;20219;-69
2022/04/10 21:36:25;;;;;;;1.23;1.23;;;-0.30;99.90;;;;;;4938685;29;20687;-69
2022/04/10 21:38:51;;;;;;;1.55;1.55;;;-0.30;99.90;;;;;;4939128;29;20205;-69
2022/04/10 21:41:20;;;;;;;1.42;1.42;;;-0.30;99.90;;;;;;4938972;29;20255;-69
2022/04/10 21:43:46;;;;;;;1.70;1.60;;;-0.40;99.90;;;;;;4939026;29;20232;-70
2022/04/10 21:46:13;;;;;;;1.27;1.27;;;-0.40;99.90;;;;;;4939059;29;20237;-70
2022/04/10 21:48:40;;;;;;;1.42;1.42;;;-0.40;99.90;;;;;;4940585;29;20208;-70
2022/04/10 21:51:07;;;;;;;1.20;1.20;;;-0.40;99.90;;;;;;4938943;29;20246;-70
2022/04/10 21:53:34;;;;;;;1.58;1.58;;;-0.40;99.90;;;;;;4939016;29;20211;-70
2022/04/10 21:56:01;;;;;;;1.40;1.40;;;-0.40;99.90;;;;;;4939034;29;20208;-70
2022/04/10 21:58:29;;;;;;;1.50;1.50;;;-0.40;99.90;;;;;;4938974;29;20235;-70
2022/04/10 22:00:56;;;;;;;1.45;1.45;;;-0.50;99.90;;;;;;4938696;29;20315;-69
